首页
METAR-TAF:

METAR-TAF

机场 :

De Queen, 阿肯色州, 美国

纬度: 34-02-49N, 经度: 094-23-58W, 海拔: 108米

当前天气观测

该预报发布于52分钟前的03:53 UTC
风速3节,风向
温度 3°C
湿度 70%
气压 1038 hPa
能見度: 16.1公里
天空无云

METAR: KDEQ 210353Z AUTO 35003KT 10SM CLR 03/M02 A3064 RMK AO1 SLP374 T00331022

时间: 22:45 (04:45 UTC)


TAF: 丢失

超过4000个机场的气象观测和天气预报(METAR&TAF报告)。

可查询的气象台以黄色和红色小点在地图上表示。

将鼠标移到小点上方,可查看气象台名称。

然后点击查看天气观测和预报。

如需切换地图:点击带黑十字的绿色按钮放大地图;点击带横线的绿色按钮缩小地图;或者点击绿色箭头查看邻近地区的地图。


METAR-TAF: